Time;durP1;ratioP1;P1;durP2;ratioP2;P2;SDS_P1;SDS_P2;PMS_P1;PMS_P2;Temp;Humidity;BMP_temperature;BMP_pressure;BME280_temperature;BME280_humidity;BME280_pressure;Samples;Min_cycle;Max_cycle;Signal;HPM_P1;HPM_P2
2021/12/27 00:00:39;;;;;;;4.88;1.85;;;-6.60;99.90;;;;;;5054663;28;20021;-69
2021/12/27 00:03:05;;;;;;;3.05;1.60;;;-6.70;99.90;;;;;;5054580;28;20025;-69
2021/12/27 00:05:31;;;;;;;4.18;1.63;;;-6.70;99.90;;;;;;5035378;22;20050;-73
2021/12/27 00:07:57;;;;;;;7.18;1.67;;;-6.60;99.90;;;;;;4995251;28;20557;-73
2021/12/27 00:10:24;;;;;;;4.45;1.92;;;-6.70;99.90;;;;;;4995212;28;20497;-73
2021/12/27 00:12:50;;;;;;;4.63;1.88;;;-6.70;99.90;;;;;;4995165;28;20030;-73
2021/12/27 00:15:16;;;;;;;4.97;1.83;;;-6.90;99.90;;;;;;5007209;28;20033;-73
2021/12/27 00:17:43;;;;;;;2.88;1.45;;;-6.90;99.90;;;;;;5014531;28;20474;-73
2021/12/27 00:20:11;;;;;;;3.20;1.98;;;-6.90;99.90;;;;;;5014594;28;20474;-73
2021/12/27 00:22:38;;;;;;;8.13;2.47;;;-6.90;99.90;;;;;;5014549;28;20025;-73
2021/12/27 00:25:04;;;;;;;4.13;1.95;;;-6.90;99.90;;;;;;5014527;28;20025;-73
2021/12/27 00:27:30;;;;;;;4.25;1.70;;;-6.90;99.90;;;;;;5014423;28;20076;-73
2021/12/27 00:29:55;;;;;;;6.07;2.05;;;-6.80;99.90;;;;;;5014447;28;20034;-73
2021/12/27 00:32:21;;;;;;;4.22;2.00;;;-6.80;99.90;;;;;;5014395;28;20029;-73
2021/12/27 00:34:47;;;;;;;3.17;1.85;;;-6.80;99.90;;;;;;5014378;28;20030;-73
2021/12/27 00:37:12;;;;;;;3.22;1.88;;;-6.70;99.90;;;;;;5014514;28;20112;-73
2021/12/27 00:39:38;;;;;;;4.57;1.92;;;-6.70;99.90;;;;;;5014312;28;20033;-73
2021/12/27 00:42:04;;;;;;;4.72;1.33;;;-6.70;99.90;;;;;;5014213;28;20022;-73
2021/12/27 00:44:31;;;;;;;3.28;1.60;;;-6.60;99.90;;;;;;5014118;28;20041;-73
2021/12/27 00:46:56;;;;;;;5.60;1.67;;;-6.60;99.90;;;;;;5014190;28;20030;-73
2021/12/27 00:49:22;;;;;;;2.63;1.65;;;-6.60;99.90;;;;;;5014133;28;20487;-73
2021/12/27 00:51:48;;;;;;;3.22;1.65;;;-6.60;99.90;;;;;;5012825;28;20037;-73
2021/12/27 00:54:15;;;;;;;5.45;2.13;;;-6.70;99.90;;;;;;5013111;28;20041;-73
2021/12/27 00:56:41;;;;;;;2.80;1.73;;;-6.70;99.90;;;;;;5013914;28;20026;-73
2021/12/27 00:59:06;;;;;;;3.63;1.45;;;-6.70;99.90;;;;;;5012699;28;20022;-73
2021/12/27 01:01:32;;;;;;;6.82;2.08;;;-6.50;99.90;;;;;;5013872;28;20026;-73
2021/12/27 01:03:59;;;;;;;3.97;1.80;;;-6.60;99.90;;;;;;5013931;28;20045;-73
2021/12/27 01:06:25;;;;;;;2.50;1.75;;;-6.60;99.90;;;;;;5014204;28;20034;-73
2021/12/27 01:08:52;;;;;;;3.88;1.95;;;-6.60;99.90;;;;;;5014082;28;20045;-73
2021/12/27 01:11:27;;;;;;;3.55;1.67;;;-6.60;99.90;;;;;;5007142;28;20072;-73
2021/12/27 01:14:08;;;;;;;6.05;1.67;;;-6.50;99.90;;;;;;5013965;28;20024;-73
2021/12/27 01:16:34;;;;;;;3.33;1.73;;;-6.50;99.90;;;;;;5006044;28;20482;-73
2021/12/27 01:19:00;;;;;;;4.32;1.58;;;-6.50;99.90;;;;;;5009123;28;20110;-73
2021/12/27 01:21:27;;;;;;;3.58;1.77;;;-6.50;99.90;;;;;;5000469;28;20064;-73
2021/12/27 01:23:54;;;;;;;2.25;1.30;;;-6.40;99.90;;;;;;5026625;28;20033;-73
2021/12/27 01:26:21;;;;;;;5.68;2.13;;;-6.40;99.90;;;;;;5013832;28;20022;-73
2021/12/27 01:28:47;;;;;;;4.18;1.52;;;-6.30;99.90;;;;;;4996749;28;20085;-73
2021/12/27 01:31:13;;;;;;;3.05;1.48;;;-6.30;99.90;;;;;;4996466;28;20021;-73
2021/12/27 01:33:39;;;;;;;2.25;1.48;;;-6.30;99.90;;;;;;4993878;28;20034;-73
2021/12/27 01:36:07;;;;;;;8.23;1.90;;;-6.20;99.90;;;;;;4992514;28;20027;-73
2021/12/27 01:38:37;;;;;;;3.47;1.77;;;-6.20;99.90;;;;;;5023559;28;20026;-74
2021/12/27 01:41:04;;;;;;;5.50;1.85;;;-6.20;99.90;;;;;;5028576;28;20089;-74
2021/12/27 01:43:32;;;;;;;6.72;2.25;;;-6.20;99.90;;;;;;5011979;28;20034;-74
2021/12/27 01:46:05;;;;;;;4.72;1.60;;;-6.20;99.90;;;;;;4992548;28;20026;-73
2021/12/27 01:48:37;;;;;;;7.47;2.55;;;-6.10;99.90;;;;;;4993748;28;20573;-72
2021/12/27 01:51:04;;;;;;;4.72;1.60;;;-6.10;99.90;;;;;;5012049;28;20371;-71
2021/12/27 01:53:32;;;;;;;4.57;1.98;;;-6.10;99.90;;;;;;5013304;28;20037;-71
2021/12/27 01:55:58;;;;;;;5.28;1.80;;;-6.00;99.90;;;;;;5008096;28;20040;-71
2021/12/27 01:58:26;;;;;;;5.10;2.00;;;-6.10;99.90;;;;;;5009071;28;20030;-71
2021/12/27 02:00:56;;;;;;;4.80;2.15;;;-6.00;99.90;;;;;;5013468;28;20030;-73
2021/12/27 02:03:25;;;;;;;6.18;1.70;;;-6.00;99.90;;;;;;5013371;28;20029;-72
2021/12/27 02:05:51;;;;;;;8.88;2.35;;;-6.00;99.90;;;;;;5008288;28;20081;-73
2021/12/27 02:08:17;;;;;;;7.88;2.05;;;-6.00;99.90;;;;;;5006130;28;20025;-72
2021/12/27 02:10:43;;;;;;;6.22;2.05;;;-6.00;99.90;;;;;;5002641;28;20029;-72
2021/12/27 02:13:09;;;;;;;8.32;1.95;;;-5.90;99.90;;;;;;5006327;28;20037;-72
2021/12/27 02:15:35;;;;;;;3.90;2.55;;;-5.90;99.90;;;;;;5003690;28;20030;-72
2021/12/27 02:18:01;;;;;;;3.45;1.80;;;-6.00;99.90;;;;;;5019254;28;20029;-72
2021/12/27 02:20:32;;;;;;;5.38;2.10;;;-6.00;99.90;;;;;;5006091;28;20105;-72
2021/12/27 02:23:02;;;;;;;3.97;2.35;;;-5.90;99.90;;;;;;5001771;28;20386;-72
2021/12/27 02:25:29;;;;;;;4.82;1.88;;;-6.10;99.90;;;;;;5007807;28;20397;-72
2021/12/27 02:27:55;;;;;;;4.72;2.15;;;-6.00;99.90;;;;;;5003875;28;20025;-71
2021/12/27 02:30:22;;;;;;;5.25;1.98;;;-6.10;99.90;;;;;;5003006;28;20085;-72
2021/12/27 02:32:53;;;;;;;7.60;2.78;;;-6.00;99.90;;;;;;5007192;28;20081;-72
2021/12/27 02:35:30;;;;;;;6.82;2.75;;;-6.00;99.90;;;;;;5021185;28;20060;-72
2021/12/27 02:37:59;;;;;;;7.70;2.00;;;-5.90;99.90;;;;;;5009581;28;20033;-72
2021/12/27 02:40:26;;;;;;;10.45;2.60;;;-5.90;99.90;;;;;;5002749;28;20026;-72
2021/12/27 02:43:06;;;;;;;5.10;2.50;;;-5.90;99.90;;;;;;5006255;28;20523;-73
2021/12/27 02:45:34;;;;;;;6.72;2.40;;;-6.00;99.90;;;;;;5007585;28;20117;-73
2021/12/27 02:48:00;;;;;;;3.25;2.15;;;-6.10;99.90;;;;;;5020301;28;20393;-73
2021/12/27 02:50:27;;;;;;;5.95;2.05;;;-6.10;99.90;;;;;;5018420;28;20033;-73
2021/12/27 02:52:53;;;;;;;11.95;2.60;;;-6.20;99.90;;;;;;5004157;28;20038;-73
2021/12/27 02:55:19;;;;;;;8.23;2.13;;;-6.10;99.90;;;;;;5007208;28;20030;-73
2021/12/27 02:57:46;;;;;;;4.90;2.35;;;-6.10;99.90;;;;;;5006527;28;20057;-73
2021/12/27 03:00:18;;;;;;;8.20;1.92;;;-6.10;99.90;;;;;;5001380;28;20026;-73
2021/12/27 03:02:45;;;;;;;5.63;2.72;;;-6.10;99.90;;;;;;5003498;28;20494;-73
2021/12/27 03:05:13;;;;;;;6.10;2.65;;;-6.10;99.90;;;;;;5006637;28;20497;-73
2021/12/27 03:07:40;;;;;;;4.07;2.63;;;-6.10;99.90;;;;;;5005599;28;20042;-73
2021/12/27 03:10:07;;;;;;;4.93;2.20;;;-6.10;99.90;;;;;;5011215;28;20030;-73
2021/12/27 03:12:33;;;;;;;10.15;3.08;;;-6.10;99.90;;;;;;5003644;28;20026;-72
2021/12/27 03:14:58;;;;;;;6.03;2.85;;;-6.00;99.90;;;;;;5008089;28;20060;-72
2021/12/27 03:17:24;;;;;;;5.53;2.63;;;-5.90;99.90;;;;;;5000629;28;20042;-73
2021/12/27 03:19:50;;;;;;;7.18;2.20;;;-5.90;99.90;;;;;;5006169;28;20061;-74
2021/12/27 03:22:15;;;;;;;7.00;2.90;;;-5.90;99.90;;;;;;5004572;28;20026;-73
2021/12/27 03:24:41;;;;;;;9.10;2.88;;;-6.00;99.90;;;;;;5004560;28;20033;-74
2021/12/27 03:27:06;;;;;;;10.75;2.90;;;-6.00;99.90;;;;;;5002896;28;20033;-73
2021/12/27 03:29:32;;;;;;;8.10;3.35;;;-6.00;99.90;;;;;;5009991;28;20448;-72
2021/12/27 03:31:58;;;;;;;7.47;2.50;;;-5.90;99.90;;;;;;5005715;28;20117;-73
2021/12/27 03:34:23;;;;;;;7.97;3.13;;;-6.00;99.90;;;;;;5006818;28;20030;-72
2021/12/27 03:36:50;;;;;;;7.50;3.20;;;-5.90;99.90;;;;;;4995758;28;20038;-72
2021/12/27 03:39:15;;;;;;;8.18;3.10;;;-5.90;99.90;;;;;;4995735;28;20034;-72
2021/12/27 03:41:41;;;;;;;7.20;3.13;;;-5.90;99.90;;;;;;4995792;28;20026;-73
2021/12/27 03:44:07;;;;;;;7.57;3.40;;;-5.90;99.90;;;;;;4995574;28;20057;-73
2021/12/27 03:46:33;;;;;;;11.30;3.15;;;-5.90;99.90;;;;;;4994366;28;20438;-72
2021/12/27 03:48:58;;;;;;;5.63;3.13;;;-5.90;99.90;;;;;;4996074;28;20386;-72
2021/12/27 03:51:24;;;;;;;4.93;3.42;;;-5.80;99.90;;;;;;4994302;28;20030;-73
2021/12/27 03:53:50;;;;;;;6.93;3.08;;;-5.80;99.90;;;;;;4995433;28;20034;-72
2021/12/27 03:56:16;;;;;;;9.13;3.08;;;-5.80;99.90;;;;;;4995445;28;20027;-73
2021/12/27 03:58:58;;;;;;;7.57;3.90;;;-5.90;99.90;;;;;;4995309;28;20026;-72
2021/12/27 04:01:26;;;;;;;10.35;3.70;;;-5.90;99.90;;;;;;4995413;28;20430;-72
2021/12/27 04:03:54;;;;;;;8.90;3.45;;;-5.90;99.90;;;;;;5010152;28;20023;-72
2021/12/27 04:06:21;;;;;;;7.80;3.28;;;-5.90;99.90;;;;;;4995337;28;20034;-72
2021/12/27 04:08:48;;;;;;;10.27;4.03;;;-5.90;99.90;;;;;;4995549;28;20030;-72
2021/12/27 04:11:14;;;;;;;10.23;4.03;;;-5.90;99.90;;;;;;4995329;28;20390;-72
2021/12/27 04:13:41;;;;;;;13.65;4.13;;;-5.90;99.90;;;;;;4995194;28;20088;-72
2021/12/27 04:16:07;;;;;;;10.55;3.50;;;-5.90;99.90;;;;;;4995021;28;20048;-72
2021/12/27 04:18:33;;;;;;;14.68;4.05;;;-5.80;99.90;;;;;;4995013;28;20478;-72
2021/12/27 04:20:58;;;;;;;12.20;4.30;;;-5.80;99.90;;;;;;4995577;28;20161;-72
2021/12/27 04:23:24;;;;;;;11.07;4.45;;;-5.70;99.90;;;;;;4995009;28;20150;-72
2021/12/27 04:25:50;;;;;;;10.68;3.63;;;-5.60;99.90;;;;;;4994835;28;20054;-72
2021/12/27 04:28:17;;;;;;;14.88;4.72;;;-5.60;99.90;;;;;;5009076;28;20045;-72
2021/12/27 04:30:43;;;;;;;11.82;4.47;;;-5.50;99.90;;;;;;5012318;28;20087;-72
2021/12/27 04:33:09;;;;;;;16.75;4.38;;;-5.40;99.90;;;;;;5014702;28;20026;-72
2021/12/27 04:35:35;;;;;;;10.70;3.65;;;-5.30;99.90;;;;;;5011573;28;20534;-72
2021/12/27 04:38:01;;;;;;;12.20;4.47;;;-5.20;99.90;;;;;;4994648;28;20031;-72
2021/12/27 04:40:31;;;;;;;17.52;4.78;;;-5.20;99.90;;;;;;4995885;28;20026;-72
2021/12/27 04:43:01;;;;;;;8.88;4.32;;;-5.10;99.90;;;;;;5014340;28;20390;-72
2021/12/27 04:45:26;;;;;;;10.68;4.90;;;-5.00;99.90;;;;;;5014404;28;20022;-73
2021/12/27 04:47:52;;;;;;;12.90;4.50;;;-5.00;99.90;;;;;;5008151;28;20033;-72
2021/12/27 04:50:18;;;;;;;14.20;4.55;;;-4.90;99.90;;;;;;4994767;28;20058;-72
2021/12/27 04:52:45;;;;;;;10.90;4.68;;;-4.90;99.90;;;;;;4994504;28;20055;-73
2021/12/27 04:55:11;;;;;;;9.30;4.45;;;-4.80;99.90;;;;;;4993082;28;20041;-72
2021/12/27 04:57:36;;;;;;;17.02;5.63;;;-4.70;99.90;;;;;;4994271;28;20030;-72
2021/12/27 05:00:04;;;;;;;13.15;4.80;;;-4.70;99.90;;;;;;4994648;28;20053;-72
2021/12/27 05:02:30;;;;;;;13.80;5.38;;;-4.70;99.90;;;;;;4993805;28;20034;-73
2021/12/27 05:04:55;;;;;;;11.90;5.00;;;-4.60;99.90;;;;;;5012090;28;20034;-72
2021/12/27 05:07:21;;;;;;;10.23;5.03;;;-4.50;99.90;;;;;;5013877;28;20497;-72
2021/12/27 05:09:46;;;;;;;10.63;4.47;;;-4.50;99.90;;;;;;4998598;28;20065;-73
2021/12/27 05:12:12;;;;;;;18.98;4.85;;;-4.50;99.90;;;;;;4994176;28;20085;-72
2021/12/27 05:14:37;;;;;;;12.70;4.63;;;-4.40;99.90;;;;;;5006076;28;20022;-73
2021/12/27 05:17:03;;;;;;;15.00;5.22;;;-4.40;99.90;;;;;;5013642;28;20037;-72
2021/12/27 05:19:29;;;;;;;20.50;6.03;;;-4.40;99.90;;;;;;5013221;28;20076;-72
2021/12/27 05:21:55;;;;;;;14.77;5.03;;;-4.50;99.90;;;;;;4994056;28;20022;-72
2021/12/27 05:24:22;;;;;;;14.00;5.18;;;-4.50;99.90;;;;;;4994117;28;20027;-72
2021/12/27 05:26:49;;;;;;;15.45;5.90;;;-4.50;99.90;;;;;;4992719;28;20026;-72
2021/12/27 05:29:16;;;;;;;16.30;5.50;;;-4.40;99.90;;;;;;4993930;28;20019;-73
2021/12/27 05:31:42;;;;;;;20.27;6.38;;;-4.40;99.90;;;;;;5009476;28;20148;-72
2021/12/27 05:34:07;;;;;;;13.38;5.55;;;-4.30;99.90;;;;;;5028650;28;20112;-72
2021/12/27 05:36:33;;;;;;;13.02;5.38;;;-4.30;99.90;;;;;;5000375;28;20015;-72
2021/12/27 05:38:59;;;;;;;11.98;4.70;;;-4.20;99.90;;;;;;4992571;28;20121;-72
2021/12/27 05:41:24;;;;;;;16.65;5.72;;;-4.20;99.90;;;;;;5000300;28;20022;-73
2021/12/27 05:43:50;;;;;;;17.50;6.60;;;-4.20;99.90;;;;;;5028512;28;20018;-72
2021/12/27 05:46:16;;;;;;;17.23;5.93;;;-4.10;99.90;;;;;;5008935;28;20497;-72
2021/12/27 05:48:41;;;;;;;12.75;5.60;;;-4.10;99.90;;;;;;5013534;28;20072;-72
2021/12/27 05:51:07;;;;;;;14.02;5.75;;;-4.00;99.90;;;;;;5003741;28;20529;-72
2021/12/27 05:53:32;;;;;;;16.70;6.28;;;-4.00;99.90;;;;;;4992521;28;20030;-72
2021/12/27 05:55:58;;;;;;;18.30;5.80;;;-3.90;99.90;;;;;;4995844;28;20037;-72
2021/12/27 05:58:25;;;;;;;19.10;5.88;;;-3.90;99.90;;;;;;4993585;28;20030;-72
2021/12/27 06:00:51;;;;;;;17.80;6.93;;;-3.90;99.90;;;;;;4995857;28;20389;-72
2021/12/27 06:03:17;;;;;;;13.65;6.30;;;-3.80;99.90;;;;;;5002319;28;20018;-73
2021/12/27 06:05:43;;;;;;;19.50;7.82;;;-3.80;99.90;;;;;;5056412;22;20056;-71
2021/12/27 06:08:08;;;;;;;16.17;6.70;;;-3.70;99.90;;;;;;5053058;28;20036;-70
2021/12/27 06:10:34;;;;;;;20.73;6.72;;;-3.70;99.90;;;;;;5053021;28;20025;-70
2021/12/27 06:13:00;;;;;;;19.55;7.22;;;-3.60;99.90;;;;;;5053040;28;20394;-70
2021/12/27 06:15:25;;;;;;;14.93;6.03;;;-3.60;99.90;;;;;;5052935;28;20373;-70
2021/12/27 06:17:51;;;;;;;13.80;6.63;;;-3.60;99.90;;;;;;5052587;28;20519;-70
2021/12/27 06:20:17;;;;;;;19.02;7.32;;;-3.60;99.90;;;;;;5052917;28;20025;-70
2021/12/27 06:22:47;;;;;;;23.25;7.05;;;-3.60;99.90;;;;;;5052653;28;20102;-70
2021/12/27 06:25:13;;;;;;;18.15;6.88;;;-3.50;99.90;;;;;;5042967;28;20088;-70
2021/12/27 06:27:39;;;;;;;15.55;7.60;;;-3.50;99.90;;;;;;5032850;28;20033;-70
2021/12/27 06:30:07;;;;;;;25.48;8.07;;;-3.50;99.90;;;;;;5032754;28;20030;-70
2021/12/27 06:32:34;;;;;;;18.10;7.07;;;-3.50;99.90;;;;;;5032948;28;20472;-70
2021/12/27 06:34:59;;;;;;;26.05;7.68;;;-3.40;99.90;;;;;;5032852;28;20030;-70
2021/12/27 06:37:25;;;;;;;19.23;7.70;;;-3.40;99.90;;;;;;5032535;28;20536;-71
2021/12/27 06:39:50;;;;;;;16.65;6.88;;;-3.40;99.90;;;;;;5032792;28;20036;-70
2021/12/27 06:42:16;;;;;;;18.85;7.85;;;-3.40;99.90;;;;;;5034785;28;20026;-71
2021/12/27 06:44:42;;;;;;;19.80;7.78;;;-3.40;99.90;;;;;;5052682;28;20460;-70
2021/12/27 06:47:07;;;;;;;16.77;7.88;;;-3.40;99.90;;;;;;5050160;28;20108;-71
2021/12/27 06:49:33;;;;;;;23.70;8.40;;;-3.40;99.90;;;;;;5052493;28;20397;-70
2021/12/27 06:51:59;;;;;;;25.92;8.95;;;-3.50;99.90;;;;;;5052969;28;20452;-70
2021/12/27 06:54:25;;;;;;;16.08;7.30;;;-3.40;99.90;;;;;;5038255;28;20037;-71
2021/12/27 06:56:50;;;;;;;22.80;7.88;;;-3.40;99.90;;;;;;5036196;28;20029;-70
2021/12/27 06:59:16;;;;;;;24.48;8.38;;;-3.30;99.90;;;;;;5036641;28;20033;-71
2021/12/27 07:01:42;;;;;;;18.30;6.80;;;-3.30;99.90;;;;;;5035821;28;20025;-70
2021/12/27 07:04:07;;;;;;;24.85;7.97;;;-3.20;99.90;;;;;;5042561;28;20074;-70
2021/12/27 07:06:33;;;;;;;18.17;6.70;;;-3.20;99.90;;;;;;5055600;28;20037;-70
2021/12/27 07:08:59;;;;;;;19.45;7.80;;;-3.10;99.90;;;;;;5053500;28;20028;-71
2021/12/27 07:11:24;;;;;;;24.58;7.70;;;-3.10;99.90;;;;;;5040570;28;20036;-70
2021/12/27 07:13:50;;;;;;;22.85;7.32;;;-3.10;99.90;;;;;;5035516;28;20028;-70
2021/12/27 07:16:15;;;;;;;19.52;7.38;;;-3.10;99.90;;;;;;5035650;28;20032;-70
2021/12/27 07:18:41;;;;;;;17.73;7.18;;;-3.10;99.90;;;;;;5035813;28;20033;-70
2021/12/27 07:21:07;;;;;;;20.48;8.45;;;-3.00;99.90;;;;;;5035534;28;20019;-70
2021/12/27 07:23:32;;;;;;;20.17;7.90;;;-3.10;99.90;;;;;;5036019;28;20021;-70
2021/12/27 07:25:58;;;;;;;19.45;7.32;;;-3.00;99.90;;;;;;5035368;28;20477;-70
2021/12/27 07:28:24;;;;;;;25.25;8.32;;;-3.00;99.90;;;;;;5035403;28;20021;-70
2021/12/27 07:30:50;;;;;;;14.23;6.80;;;-3.00;99.90;;;;;;5035407;28;20633;-70
2021/12/27 07:33:15;;;;;;;20.45;7.68;;;-3.00;99.90;;;;;;5035327;28;20021;-70
2021/12/27 07:35:41;;;;;;;14.85;7.28;;;-3.00;99.90;;;;;;5035319;28;20171;-70
2021/12/27 07:38:07;;;;;;;25.15;7.88;;;-3.00;99.90;;;;;;5026882;28;20017;-71
2021/12/27 07:40:33;;;;;;;28.70;8.10;;;-3.00;99.90;;;;;;5015407;28;20033;-70
2021/12/27 07:42:59;;;;;;;16.38;6.10;;;-3.00;99.90;;;;;;5015367;28;20420;-70
2021/12/27 07:45:25;;;;;;;20.35;7.53;;;-3.00;99.90;;;;;;5015237;28;20026;-70
2021/12/27 07:47:50;;;;;;;21.67;8.13;;;-3.10;99.90;;;;;;5015555;28;20516;-70
2021/12/27 07:50:16;;;;;;;25.00;8.18;;;-3.10;99.90;;;;;;5015508;28;20117;-70
2021/12/27 07:52:42;;;;;;;17.60;6.63;;;-3.20;99.90;;;;;;5015387;28;20026;-70
2021/12/27 07:55:08;;;;;;;22.80;8.18;;;-3.30;99.90;;;;;;5015592;28;20021;-70
2021/12/27 07:57:34;;;;;;;18.63;7.13;;;-3.30;99.90;;;;;;4997437;28;20037;-70
2021/12/27 08:00:00;;;;;;;19.85;7.55;;;-3.30;99.90;;;;;;5015052;28;20117;-70
2021/12/27 08:02:26;;;;;;;23.52;7.50;;;-3.30;99.90;;;;;;5015224;28;20061;-70
2021/12/27 08:04:51;;;;;;;24.90;7.50;;;-3.30;99.90;;;;;;5014375;28;20447;-70
2021/12/27 08:07:17;;;;;;;22.73;8.68;;;-3.20;99.90;;;;;;5015220;28;20033;-70
2021/12/27 08:09:43;;;;;;;21.58;6.82;;;-3.20;99.90;;;;;;5014803;28;20029;-70
2021/12/27 08:12:12;;;;;;;23.60;7.88;;;-3.10;99.90;;;;;;5015111;28;20108;-70
2021/12/27 08:14:38;;;;;;;21.35;7.95;;;-3.00;99.90;;;;;;4997182;28;20049;-70
2021/12/27 08:17:04;;;;;;;21.85;8.75;;;-3.00;99.90;;;;;;5014958;28;20461;-70
2021/12/27 08:19:29;;;;;;;23.40;8.80;;;-3.00;99.90;;;;;;5014689;28;20033;-71
2021/12/27 08:21:55;;;;;;;26.50;10.27;;;-3.10;99.90;;;;;;5014649;28;20535;-70
2021/12/27 08:24:20;;;;;;;25.48;9.10;;;-3.10;99.90;;;;;;5014545;28;20077;-70
2021/12/27 08:26:47;;;;;;;21.50;8.02;;;-3.10;99.90;;;;;;5014520;28;20021;-70
2021/12/27 08:29:12;;;;;;;21.73;8.20;;;-3.20;99.90;;;;;;5015051;28;20026;-70
2021/12/27 08:31:38;;;;;;;21.38;7.82;;;-3.30;99.90;;;;;;5014487;28;20064;-70
2021/12/27 08:34:03;;;;;;;19.83;7.93;;;-3.30;99.90;;;;;;5014405;28;20017;-70
2021/12/27 08:36:29;;;;;;;21.98;9.13;;;-3.30;99.90;;;;;;5014329;28;20030;-70
2021/12/27 08:38:55;;;;;;;20.55;8.23;;;-3.30;99.90;;;;;;5014546;28;20030;-70
2021/12/27 08:41:27;;;;;;;21.70;8.10;;;-3.30;99.90;;;;;;5021536;28;20427;-71
2021/12/27 08:43:54;;;;;;;22.58;8.85;;;-3.30;99.90;;;;;;5016232;28;20071;-70
2021/12/27 08:46:19;;;;;;;21.92;8.30;;;-3.10;99.90;;;;;;5033850;28;20017;-70
2021/12/27 08:48:45;;;;;;;20.60;8.90;;;-2.90;99.90;;;;;;5033927;28;20056;-70
2021/12/27 08:51:10;;;;;;;25.85;8.48;;;-2.80;99.90;;;;;;5033493;28;20037;-70
2021/12/27 08:53:36;;;;;;;24.35;9.23;;;-2.70;99.90;;;;;;5034124;28;20167;-70
2021/12/27 08:56:02;;;;;;;26.67;8.43;;;-2.50;99.90;;;;;;5033060;28;20040;-71
2021/12/27 08:58:27;;;;;;;21.42;9.40;;;-2.40;99.90;;;;;;5033868;28;20021;-70
2021/12/27 09:00:53;;;;;;;20.67;8.73;;;-2.30;99.90;;;;;;5033661;28;20025;-70
2021/12/27 09:03:18;;;;;;;24.85;9.05;;;-2.30;99.90;;;;;;5033721;28;20481;-70
2021/12/27 09:05:44;;;;;;;25.02;8.90;;;-2.20;99.90;;;;;;5033424;28;20037;-71
2021/12/27 09:08:10;;;;;;;23.00;8.20;;;-2.20;99.90;;;;;;5033863;28;20061;-70
2021/12/27 09:10:36;;;;;;;21.58;8.73;;;-2.20;99.90;;;;;;5033797;28;20025;-70
2021/12/27 09:13:02;;;;;;;18.88;8.45;;;-2.10;99.90;;;;;;5033493;28;20040;-70
2021/12/27 09:15:29;;;;;;;33.90;10.43;;;-2.10;99.90;;;;;;5032909;28;20028;-70
2021/12/27 09:17:55;;;;;;;23.63;10.80;;;-2.10;99.90;;;;;;5033775;28;20029;-71
2021/12/27 09:20:22;;;;;;;27.23;10.70;;;-2.00;99.90;;;;;;5033907;28;20465;-70
2021/12/27 09:22:48;;;;;;;25.70;10.98;;;-2.00;99.90;;;;;;5033640;28;20028;-70
2021/12/27 09:25:13;;;;;;;26.00;10.90;;;-2.00;99.90;;;;;;5033265;28;20030;-70
2021/12/27 09:27:39;;;;;;;22.40;10.07;;;-1.90;99.90;;;;;;5032626;28;20139;-71
2021/12/27 09:30:05;;;;;;;25.38;10.75;;;-1.80;99.90;;;;;;5033265;28;20061;-70
2021/12/27 09:32:31;;;;;;;26.48;10.70;;;-1.80;99.90;;;;;;5032696;28;20041;-71
2021/12/27 09:34:57;;;;;;;26.92;10.52;;;-1.80;99.90;;;;;;5033083;28;20032;-70
2021/12/27 09:37:22;;;;;;;26.05;10.60;;;-1.90;99.90;;;;;;5033381;28;20034;-70
2021/12/27 09:39:53;;;;;;;28.98;10.75;;;-1.90;99.90;;;;;;5033086;28;20366;-71
2021/12/27 09:42:25;;;;;;;36.00;13.15;;;-1.90;99.90;;;;;;5015824;28;20105;-72
2021/12/27 09:44:53;;;;;;;23.25;9.95;;;-1.80;99.90;;;;;;5033218;28;20026;-71
2021/12/27 09:47:20;;;;;;;23.60;10.07;;;-1.80;99.90;;;;;;5033404;28;20027;-70
2021/12/27 09:49:46;;;;;;;34.80;10.85;;;-1.80;99.90;;;;;;5033115;28;20421;-71
2021/12/27 09:52:12;;;;;;;24.08;10.65;;;-1.80;99.90;;;;;;5033049;28;20041;-71
2021/12/27 09:54:38;;;;;;;28.35;10.50;;;-1.70;99.90;;;;;;5032980;28;20022;-71
2021/12/27 09:57:05;;;;;;;23.40;11.55;;;-1.70;99.90;;;;;;5032418;28;20071;-71
2021/12/27 09:59:31;;;;;;;26.70;11.65;;;-1.70;99.90;;;;;;5033021;28;20083;-71
2021/12/27 10:01:57;;;;;;;26.27;11.05;;;-1.70;99.90;;;;;;5032491;28;20394;-72
2021/12/27 10:04:23;;;;;;;32.63;12.43;;;-1.60;99.90;;;;;;5032688;28;20032;-72
2021/12/27 10:06:49;;;;;;;30.35;11.10;;;-1.70;99.90;;;;;;5032928;28;20179;-71
2021/12/27 10:09:15;;;;;;;27.27;11.27;;;-1.70;99.90;;;;;;5032903;28;20076;-71
2021/12/27 10:11:43;;;;;;;31.20;12.63;;;-1.60;99.90;;;;;;5032265;28;20025;-71
2021/12/27 10:14:12;;;;;;;29.77;12.80;;;-1.60;99.90;;;;;;5032848;28;20362;-70
2021/12/27 10:17:06;;;;;;;28.67;12.27;;;-1.60;99.90;;;;;;5032763;28;20082;-70
2021/12/27 10:19:33;;;;;;;35.67;13.23;;;-1.60;99.90;;;;;;5032868;28;20040;-70
2021/12/27 10:22:00;;;;;;;27.42;11.52;;;-1.50;99.90;;;;;;5032764;28;20102;-70
2021/12/27 10:24:29;;;;;;;33.22;12.02;;;-1.50;99.90;;;;;;5032679;28;20026;-70
2021/12/27 10:26:59;;;;;;;33.08;13.68;;;-1.50;99.90;;;;;;5034501;28;20017;-70
2021/12/27 10:29:28;;;;;;;37.00;14.20;;;-1.50;99.90;;;;;;5036507;28;20481;-70
2021/12/27 10:32:06;;;;;;;31.25;12.63;;;-1.50;99.90;;;;;;5035950;28;20022;-70
2021/12/27 10:34:39;;;;;;;32.53;12.77;;;-1.40;99.90;;;;;;5036670;28;20152;-70
2021/12/27 10:37:21;;;;;;;30.70;13.38;;;-1.40;99.90;;;;;;5036373;28;20026;-70
2021/12/27 10:39:48;;;;;;;24.95;11.82;;;-1.40;99.90;;;;;;5036573;28;20021;-69
2021/12/27 10:42:18;;;;;;;30.20;11.20;;;-1.40;99.90;;;;;;5036292;28;20021;-70
2021/12/27 10:44:44;;;;;;;38.20;13.55;;;-1.30;99.90;;;;;;5036450;28;20111;-70
2021/12/27 10:47:44;;;;;;;36.13;13.80;;;-1.30;99.90;;;;;;5036385;28;20037;-70
2021/12/27 10:50:24;;;;;;;33.00;14.02;;;-1.30;99.90;;;;;;5036446;28;20036;-70
2021/12/27 10:53:00;;;;;;;36.60;15.05;;;-1.30;99.90;;;;;;5036347;28;20076;-70
2021/12/27 10:55:42;;;;;;;36.17;14.55;;;-1.30;99.90;;;;;;5035758;28;20029;-71
2021/12/27 10:58:18;;;;;;;32.53;14.00;;;-1.40;99.90;;;;;;5016217;28;20025;-70
2021/12/27 11:00:47;;;;;;;39.42;13.98;;;-1.30;99.90;;;;;;5019989;28;20022;-69
2021/12/27 11:03:26;;;;;;;40.15;14.90;;;-1.30;99.90;;;;;;5035875;28;20021;-68
2021/12/27 11:05:52;;;;;;;37.15;14.90;;;-1.20;99.90;;;;;;5035728;28;20033;-68
2021/12/27 11:08:18;;;;;;;36.00;14.90;;;-1.20;99.90;;;;;;5036104;28;20033;-68
2021/12/27 11:10:44;;;;;;;42.97;16.52;;;-1.10;99.90;;;;;;5035678;28;20087;-68
2021/12/27 11:13:09;;;;;;;38.88;14.77;;;-1.10;99.90;;;;;;5035699;28;20069;-68
2021/12/27 11:15:36;;;;;;;35.13;14.65;;;-1.20;99.90;;;;;;5035583;28;20052;-68
2021/12/27 11:18:04;;;;;;;42.92;16.55;;;-1.20;99.90;;;;;;5035422;28;20036;-68
2021/12/27 11:20:31;;;;;;;45.30;16.05;;;-1.20;99.90;;;;;;5035587;28;20022;-69
2021/12/27 11:22:59;;;;;;;39.08;16.85;;;-1.20;99.90;;;;;;5036073;28;20021;-68
2021/12/27 11:25:30;;;;;;;35.00;15.55;;;-1.20;99.90;;;;;;5035384;28;20048;-69
2021/12/27 11:27:57;;;;;;;38.15;16.08;;;-1.20;99.90;;;;;;5035459;28;20021;-69
2021/12/27 11:30:25;;;;;;;39.20;17.38;;;-1.20;99.90;;;;;;5035403;28;20037;-69
2021/12/27 11:33:14;;;;;;;42.83;16.42;;;-1.20;99.90;;;;;;5035332;28;20393;-69
2021/12/27 11:35:55;;;;;;;42.17;17.60;;;-1.20;99.90;;;;;;5035068;28;20029;-69
2021/12/27 11:38:33;;;;;;;34.60;14.85;;;-1.20;99.90;;;;;;5016578;28;20108;-69
2021/12/27 11:41:01;;;;;;;41.58;17.13;;;-1.20;99.90;;;;;;5035509;28;20531;-68
2021/12/27 11:43:50;;;;;;;43.42;15.32;;;-1.20;99.90;;;;;;5017418;28;20036;-69
2021/12/27 11:46:16;;;;;;;44.20;18.45;;;-1.10;99.90;;;;;;5034978;28;20025;-68
2021/12/27 11:48:53;;;;;;;40.95;17.80;;;-1.10;99.90;;;;;;5035613;28;20029;-68
2021/12/27 11:51:37;;;;;;;45.90;18.67;;;-0.90;99.90;;;;;;5035034;28;20021;-69
2021/12/27 11:54:05;;;;;;;46.45;18.77;;;-0.90;99.90;;;;;;5035724;28;20506;-68
2021/12/27 11:56:39;;;;;;;48.03;18.55;;;-0.90;99.90;;;;;;5034449;28;20455;-69
2021/12/27 11:59:35;;;;;;;47.55;19.75;;;-0.90;99.90;;;;;;5034886;28;20392;-68
2021/12/27 12:02:16;;;;;;;46.58;19.13;;;-0.80;99.90;;;;;;5033521;28;20025;-68
2021/12/27 12:07:35;;;;;;;45.30;18.52;;;-0.90;99.90;;;;;;5137230;23;20083;-71
2021/12/27 12:10:14;;;;;;;43.50;19.33;;;-0.90;99.90;;;;;;5054604;28;20103;-71
2021/12/27 12:12:40;;;;;;;52.00;20.38;;;-1.00;99.90;;;;;;5054686;28;20392;-71
2021/12/27 12:15:08;;;;;;;50.45;19.80;;;-0.90;99.90;;;;;;5054747;28;20047;-71
2021/12/27 12:17:41;;;;;;;44.20;19.60;;;-0.90;99.90;;;;;;5054211;28;20043;-71
2021/12/27 12:20:27;;;;;;;44.78;19.15;;;-0.80;99.90;;;;;;5054501;28;20028;-71
2021/12/27 12:23:01;;;;;;;55.22;19.27;;;-0.70;99.90;;;;;;5054521;28;20104;-71
2021/12/27 12:25:27;;;;;;;48.47;19.58;;;-0.60;99.90;;;;;;5054258;28;20017;-71
2021/12/27 12:27:56;;;;;;;50.22;22.13;;;-0.50;99.90;;;;;;5054229;28;20021;-71
2021/12/27 12:30:25;;;;;;;57.47;21.95;;;-0.60;99.90;;;;;;5054484;28;20028;-71
2021/12/27 12:33:18;;;;;;;44.00;18.73;;;-0.70;99.90;;;;;;5054152;28;20460;-71
2021/12/27 12:35:45;;;;;;;47.35;21.73;;;-0.70;99.90;;;;;;5049623;28;20033;-71
2021/12/27 12:38:16;;;;;;;49.33;21.33;;;-0.70;99.90;;;;;;5054212;28;20468;-71
2021/12/27 12:40:58;;;;;;;54.03;21.08;;;-0.80;99.90;;;;;;5051988;28;20538;-70
2021/12/27 12:43:34;;;;;;;46.53;21.23;;;-0.80;99.90;;;;;;5014624;28;20421;-71